La Coruna, Spain
Current Conditions -  °F | °C
As of 1:00 AM on Thursday 27 Nov 2014 (Local Time) from LECO Reporting Station
Moderate Fog Moderate Fog  
Wind Chill: 43°   Ceiling: Unl
Heat Index: 43°   Visibility: 5mi
Dew Point: 43°   Wind: 2mph
Humidity: 100%   Direction: NA
Pressure: 29.71"   Gusts: NA
Location:  43.37°N, 8.4°W
Report Text: LECO 270000Z VRB02KT 8000 VCFG NSC 06/06 Q1006 TEMPO 0600 FG
Loading
Personal Weather Stations






























Interactive Weather Map New forecast layout! Learn more

10-Day Weather Forecast

Advertisements
Track Severe Weather on mobile